createdAt,value
2019-01-11T00:02:16.668Z,5.90
2019-01-11T00:04:45.347Z,6.20
2019-01-11T00:07:13.949Z,5.67
2019-01-11T00:09:42.603Z,6.10
2019-01-11T00:12:11.246Z,5.67
2019-01-11T00:14:39.890Z,6.30
2019-01-11T00:17:08.632Z,7.73
2019-01-11T00:19:37.421Z,7.53
2019-01-11T00:22:06.381Z,7.10
2019-01-11T00:24:34.969Z,8.70
2019-01-11T00:27:03.572Z,7.92
2019-01-11T00:29:32.276Z,8.37
2019-01-11T00:32:00.899Z,8.07
2019-01-11T00:34:29.612Z,7.63
2019-01-11T00:36:58.333Z,10.83
2019-01-11T00:39:26.947Z,7.97
2019-01-11T00:41:55.614Z,9.33
2019-01-11T00:44:24.188Z,8.27
2019-01-11T00:46:52.875Z,8.27
2019-01-11T00:49:21.544Z,9.80
2019-01-11T00:51:50.176Z,9.10
2019-01-11T00:54:18.943Z,7.57
2019-01-11T00:56:47.621Z,8.13
2019-01-11T00:59:16.283Z,9.20
2019-01-11T01:01:47.977Z,9.27
2019-01-11T01:04:20.833Z,10.13
2019-01-11T01:06:53.584Z,9.97
2019-01-11T01:09:25.796Z,10.87
2019-01-11T01:11:54.719Z,10.00
2019-01-11T01:14:23.344Z,10.80
2019-01-11T01:16:54.236Z,10.07
2019-01-11T01:19:22.857Z,10.60
2019-01-11T01:21:51.570Z,10.97
2019-01-11T01:24:20.191Z,11.30
2019-01-11T01:26:50.182Z,12.30
2019-01-11T01:29:18.956Z,11.03
2019-01-11T01:31:47.597Z,12.10
2019-01-11T01:34:16.229Z,12.00
2019-01-11T01:36:44.863Z,12.80
2019-01-11T01:39:13.498Z,12.28
2019-01-11T01:41:42.118Z,12.13
2019-01-11T01:44:10.819Z,12.50
2019-01-11T01:46:39.598Z,13.03
2019-01-11T01:49:08.567Z,12.70
2019-01-11T01:51:37.288Z,13.43
2019-01-11T01:54:05.923Z,14.60
2019-01-11T01:56:34.666Z,13.23
2019-01-11T01:59:03.252Z,13.83
2019-01-11T02:01:31.885Z,13.90
2019-01-11T02:04:00.484Z,13.28
2019-01-11T02:06:29.105Z,13.57
2019-01-11T02:08:57.706Z,14.23
2019-01-11T02:11:26.272Z,13.57
2019-01-11T02:13:55.596Z,13.55
2019-01-11T02:16:24.289Z,15.10
2019-01-11T02:18:52.960Z,13.67
2019-01-11T02:21:21.691Z,13.73
2019-01-11T02:23:50.360Z,17.10
2019-01-11T02:26:18.974Z,15.10
2019-01-11T02:28:47.604Z,15.32
2019-01-11T02:31:16.260Z,15.30
2019-01-11T02:33:44.938Z,15.10
2019-01-11T02:36:13.543Z,16.32
2019-01-11T02:38:42.131Z,15.53
2019-01-11T02:41:10.835Z,15.33
2019-01-11T02:43:39.467Z,17.57
2019-01-11T02:46:08.230Z,17.12
2019-01-11T02:48:36.918Z,17.57
2019-01-11T02:51:05.595Z,16.07
2019-01-11T02:53:34.217Z,16.53
2019-01-11T02:56:02.956Z,16.97
2019-01-11T02:58:31.617Z,17.27
2019-01-11T03:01:00.264Z,15.87
2019-01-11T03:03:28.882Z,17.23
2019-01-11T03:05:57.658Z,17.43
2019-01-11T03:08:26.348Z,18.87
2019-01-11T03:10:55.763Z,17.73
2019-01-11T03:13:24.489Z,18.57
2019-01-11T03:15:53.058Z,18.63
2019-01-11T03:18:21.712Z,18.03
2019-01-11T03:20:50.338Z,19.60
2019-01-11T03:23:18.922Z,18.10
2019-01-11T03:25:47.565Z,19.03
2019-01-11T03:28:16.698Z,20.17
2019-01-11T03:30:45.383Z,19.73
2019-01-11T03:33:13.981Z,19.13
2019-01-11T03:35:42.596Z,18.70
2019-01-11T03:38:11.211Z,19.87
2019-01-11T03:40:39.856Z,19.03
2019-01-11T03:43:08.454Z,19.03
2019-01-11T03:45:37.112Z,19.87
2019-01-11T03:48:05.789Z,19.65
2019-01-11T03:50:34.491Z,18.70
2019-01-11T03:53:03.088Z,20.13
2019-01-11T03:55:31.767Z,20.45
2019-01-11T03:58:00.522Z,21.63
2019-01-11T04:00:29.112Z,19.77
2019-01-11T04:02:57.714Z,21.77
2019-01-11T04:05:26.376Z,21.27
2019-01-11T04:07:55.903Z,21.45
2019-01-11T04:10:25.039Z,22.62
2019-01-11T04:12:53.731Z,21.90
2019-01-11T04:15:23.130Z,22.53
2019-01-11T04:18:29.533Z,21.62
2019-01-11T04:20:58.205Z,22.87
2019-01-11T04:23:26.859Z,22.67
2019-01-11T04:25:56.057Z,23.12
2019-01-11T04:28:24.679Z,22.20
2019-01-11T04:30:53.364Z,23.63
2019-01-11T04:33:22.011Z,23.17
2019-01-11T04:35:50.917Z,22.10
2019-01-11T04:38:19.546Z,25.77
2019-01-11T04:40:48.532Z,25.87
2019-01-11T04:43:17.122Z,22.97
2019-01-11T04:45:45.817Z,22.80
2019-01-11T04:48:14.484Z,24.47
2019-01-11T04:50:43.304Z,25.37
2019-01-11T04:53:11.917Z,26.00
2019-01-11T04:55:40.571Z,26.30
2019-01-11T04:58:09.220Z,26.05
2019-01-11T05:00:37.913Z,26.17
2019-01-11T05:03:06.540Z,24.93
2019-01-11T05:05:35.185Z,27.23
2019-01-11T05:08:03.887Z,26.77
2019-01-11T05:10:32.493Z,24.37
2019-01-11T05:13:19.616Z,21.53
2019-01-11T05:15:48.267Z,24.13
2019-01-11T05:18:16.882Z,25.07
2019-01-11T05:20:45.522Z,23.10
2019-01-11T05:23:14.192Z,26.37
2019-01-11T05:25:42.825Z,25.97
2019-01-11T05:28:11.489Z,26.02
2019-01-11T05:30:40.145Z,25.97
2019-01-11T05:33:08.754Z,25.10
2019-01-11T05:35:37.494Z,26.73
2019-01-11T05:38:06.188Z,26.27
2019-01-11T05:40:34.819Z,26.93
2019-01-11T05:43:03.586Z,27.30
2019-01-11T05:45:32.235Z,30.80
2019-01-11T05:48:00.840Z,28.87
2019-01-11T05:50:29.607Z,28.40
2019-01-11T05:52:58.493Z,32.33
2019-01-11T05:55:45.185Z,29.53
2019-01-11T05:58:41.981Z,29.80
2019-01-11T06:01:10.914Z,28.52
2019-01-11T06:03:39.519Z,29.57
2019-01-11T06:06:08.229Z,29.72
2019-01-11T06:08:37.437Z,32.70
2019-01-11T06:11:06.023Z,31.65
2019-01-11T06:13:34.656Z,32.53
2019-01-11T06:16:03.482Z,33.98
2019-01-11T06:18:32.116Z,31.33
2019-01-11T06:21:00.709Z,35.20
2019-01-11T06:23:29.453Z,31.23
2019-01-11T06:25:58.131Z,32.27
2019-01-11T06:28:26.762Z,34.57
2019-01-11T06:30:55.949Z,30.05
2019-01-11T06:33:24.692Z,31.10
2019-01-11T06:35:53.495Z,31.87
2019-01-11T06:38:22.145Z,33.70
2019-01-11T06:40:50.764Z,32.03
2019-01-11T06:43:19.383Z,29.43
2019-01-11T06:45:48.017Z,28.97
2019-01-11T06:48:29.092Z,30.00
2019-01-11T06:50:57.710Z,25.93
2019-01-11T06:53:26.474Z,28.90
2019-01-11T06:55:56.003Z,28.90
2019-01-11T06:58:24.591Z,31.47
2019-01-11T07:00:53.163Z,27.80
2019-01-11T07:03:21.905Z,31.87
2019-01-11T07:05:50.614Z,28.13
2019-01-11T07:08:19.209Z,28.20
2019-01-11T07:10:47.937Z,25.97
2019-01-11T07:13:16.569Z,30.87
2019-01-11T07:15:45.223Z,28.80
2019-01-11T07:18:13.894Z,27.57
2019-01-11T07:20:42.969Z,26.27
2019-01-11T07:23:12.467Z,28.65
2019-01-11T07:25:41.193Z,22.83
2019-01-11T07:28:13.614Z,25.33
2019-01-11T07:31:05.246Z,25.60
2019-01-11T07:33:33.934Z,24.27
2019-01-11T07:36:20.745Z,24.00
2019-01-11T07:38:49.371Z,21.97
2019-01-11T07:41:17.993Z,26.73
2019-01-11T07:43:46.753Z,23.40
2019-01-11T07:46:15.354Z,20.90
2019-01-11T07:48:44.007Z,24.57
2019-01-11T07:51:12.591Z,21.90
2019-01-11T07:53:41.207Z,25.80
2019-01-11T07:56:09.894Z,27.00
2019-01-11T07:58:38.547Z,27.63
2019-01-11T08:01:07.288Z,28.07
2019-01-11T08:03:36.017Z,27.70
2019-01-11T08:06:04.821Z,29.13
2019-01-11T08:08:33.430Z,26.37
2019-01-11T08:11:03.131Z,26.05
2019-01-11T08:13:31.817Z,23.37
2019-01-11T08:16:00.494Z,27.45
2019-01-11T08:18:29.101Z,26.33
2019-01-11T08:20:57.889Z,29.23
2019-01-11T08:23:26.610Z,27.57
2019-01-11T08:25:56.427Z,27.10
2019-01-11T08:28:25.323Z,26.27
2019-01-11T08:30:54.181Z,24.13
2019-01-11T08:33:23.038Z,24.43
2019-01-11T08:35:51.735Z,26.27
2019-01-11T08:38:21.575Z,24.23
2019-01-11T08:40:50.153Z,25.60
2019-01-11T08:43:18.875Z,23.90
2019-01-11T08:45:47.663Z,25.13
2019-01-11T08:48:16.349Z,22.07
2019-01-11T08:50:46.598Z,22.53
2019-01-11T08:53:15.370Z,23.93
2019-01-11T08:55:44.044Z,22.40
2019-01-11T08:58:12.675Z,22.07
2019-01-11T09:00:41.364Z,22.33
2019-01-11T09:03:10.000Z,22.73
2019-01-11T09:05:38.605Z,23.20
2019-01-11T09:08:07.327Z,23.77
2019-01-11T09:10:35.921Z,21.90
2019-01-11T09:13:04.618Z,23.00
2019-01-11T09:15:34.005Z,22.27
2019-01-11T09:18:13.040Z,22.07
2019-01-11T09:20:42.653Z,22.20
2019-01-11T09:23:12.770Z,23.45
2019-01-11T09:25:41.442Z,19.57
2019-01-11T09:28:10.171Z,17.53
2019-01-11T09:34:08.337Z,19.07
2019-01-11T09:36:36.954Z,18.77
2019-01-11T09:39:08.587Z,16.67
2019-01-11T09:41:37.284Z,18.97
2019-01-11T09:44:06.108Z,20.00
2019-01-11T09:46:34.709Z,18.80
2019-01-11T09:49:05.253Z,19.17
2019-01-11T09:51:33.836Z,18.97
2019-01-11T09:54:02.479Z,17.77
2019-01-11T09:56:31.068Z,18.43
2019-01-11T09:58:59.755Z,17.77
2019-01-11T10:01:28.440Z,20.57
2019-01-11T10:03:57.125Z,19.73
2019-01-11T10:06:25.710Z,18.80
2019-01-11T10:08:54.961Z,19.23
2019-01-11T10:11:23.597Z,17.10
2019-01-11T10:13:52.517Z,18.20
2019-01-11T10:16:21.174Z,18.57
2019-01-11T10:18:49.801Z,18.73
2019-01-11T10:21:22.337Z,17.85
2019-01-11T10:23:48.783Z,17.73
2019-01-11T10:26:17.873Z,19.97
2019-01-11T10:28:47.922Z,19.60
2019-01-11T10:31:16.725Z,18.97
2019-01-11T10:33:45.354Z,16.77
2019-01-11T10:36:13.954Z,17.40
2019-01-11T10:38:42.638Z,15.23
2019-01-11T10:41:11.290Z,18.12
2019-01-11T10:43:39.979Z,18.33
2019-01-11T10:46:19.854Z,17.92
2019-01-11T10:48:48.506Z,15.83
2019-01-11T10:51:19.071Z,16.67
2019-01-11T10:53:47.496Z,17.48
2019-01-11T10:56:16.238Z,16.57
2019-01-11T10:58:45.050Z,18.63
2019-01-11T11:01:13.923Z,18.87
2019-01-11T11:03:42.694Z,17.10
2019-01-11T11:06:11.296Z,16.87
2019-01-11T11:08:39.975Z,17.00
2019-01-11T11:11:08.579Z,16.47
2019-01-11T11:13:37.584Z,17.83
2019-01-11T11:16:06.529Z,15.88
2019-01-11T11:18:35.269Z,15.87
2019-01-11T11:21:03.887Z,16.63
2019-01-11T11:23:32.553Z,15.43
2019-01-11T11:26:01.390Z,16.52
2019-01-11T11:28:30.066Z,19.03
2019-01-11T11:30:58.755Z,18.10
2019-01-11T11:33:27.479Z,18.03
2019-01-11T11:35:56.818Z,17.23
2019-01-11T11:38:25.472Z,16.60
2019-01-11T11:40:54.520Z,17.53
2019-01-11T11:43:23.127Z,17.87
2019-01-11T11:45:51.723Z,18.53
2019-01-11T11:48:20.356Z,17.60
2019-01-11T11:50:49.216Z,18.47
2019-01-11T11:53:17.863Z,18.60
2019-01-11T11:55:46.595Z,18.60
2019-01-11T11:58:15.233Z,16.43
2019-01-11T12:00:43.898Z,16.27
2019-01-11T12:03:12.503Z,17.17
2019-01-11T12:05:41.161Z,16.47
2019-01-11T12:08:09.898Z,16.40
2019-01-11T12:10:38.587Z,17.33
2019-01-11T12:13:07.346Z,17.52
2019-01-11T12:15:35.976Z,17.37
2019-01-11T12:18:04.626Z,15.35
2019-01-11T12:20:33.610Z,16.97
2019-01-11T12:23:02.269Z,17.47
2019-01-11T12:25:30.859Z,17.37
2019-01-11T12:27:59.680Z,16.60
2019-01-11T12:30:28.448Z,16.10
2019-01-11T12:32:57.042Z,17.27
2019-01-11T12:35:25.764Z,15.23
2019-01-11T12:37:54.529Z,16.10
2019-01-11T12:40:23.331Z,19.87
2019-01-11T12:42:52.067Z,16.90
2019-01-11T12:45:21.075Z,16.97
2019-01-11T12:47:49.741Z,16.10
2019-01-11T12:50:20.927Z,15.33
2019-01-11T12:52:49.572Z,17.23
2019-01-11T12:55:18.468Z,16.03
2019-01-11T12:57:47.248Z,15.47
2019-01-11T13:00:16.792Z,16.30
2019-01-11T13:02:45.491Z,15.83
2019-01-11T13:05:19.244Z,16.87
2019-01-11T13:07:48.100Z,14.05
2019-01-11T13:10:18.065Z,15.83
2019-01-11T13:12:46.839Z,17.13
2019-01-11T13:15:23.046Z,14.90
2019-01-11T13:17:51.706Z,15.27
2019-01-11T13:20:21.558Z,13.50
2019-01-11T13:22:50.727Z,14.40
2019-01-11T13:25:19.440Z,13.33
2019-01-11T13:27:48.186Z,12.53
2019-01-11T13:30:17.523Z,13.47
2019-01-11T13:32:46.213Z,12.63
2019-01-11T13:35:14.891Z,12.60
2019-01-11T13:37:43.631Z,13.77
2019-01-11T13:40:14.815Z,11.57
2019-01-11T13:42:43.562Z,13.33
2019-01-11T13:45:12.280Z,13.30
2019-01-11T13:47:43.090Z,13.20
2019-01-11T13:50:33.714Z,14.23
2019-01-11T13:53:02.378Z,14.23
2019-01-11T13:55:31.040Z,14.43
2019-01-11T13:57:59.768Z,13.27
2019-01-11T14:00:28.467Z,14.87
2019-01-11T14:02:57.364Z,12.70
2019-01-11T14:05:26.107Z,12.77
2019-01-11T14:07:54.839Z,14.77
2019-01-11T14:10:23.479Z,14.00
2019-01-11T14:12:52.441Z,14.03
2019-01-11T14:15:21.081Z,12.17
2019-01-11T14:17:49.845Z,12.07
2019-01-11T14:20:18.583Z,13.07
2019-01-11T14:22:47.224Z,11.00
2019-01-11T14:25:17.150Z,12.40
2019-01-11T14:27:46.342Z,12.70
2019-01-11T14:30:15.554Z,12.07
2019-01-11T14:32:44.423Z,12.67
2019-01-11T14:35:13.164Z,12.40
2019-01-11T14:37:41.804Z,11.63
2019-01-11T14:40:12.694Z,11.97
2019-01-11T14:42:41.409Z,11.90
2019-01-11T14:45:11.888Z,10.53
2019-01-11T14:47:40.671Z,11.70
2019-01-11T14:50:12.295Z,12.27
2019-01-11T14:52:40.949Z,11.27
2019-01-11T14:55:09.547Z,13.25
2019-01-11T14:57:38.205Z,10.40
2019-01-11T15:00:10.439Z,12.73
2019-01-11T15:02:39.167Z,12.27
2019-01-11T15:05:09.462Z,12.47
2019-01-11T15:07:38.235Z,13.00
2019-01-11T15:10:09.157Z,13.38
2019-01-11T15:12:37.883Z,12.30
2019-01-11T15:15:08.131Z,12.90
2019-01-11T15:17:36.799Z,11.50
2019-01-11T15:20:07.123Z,11.40
2019-01-11T15:22:35.962Z,11.33
2019-01-11T15:25:09.117Z,11.83
2019-01-11T15:27:38.023Z,12.33
2019-01-11T15:30:08.607Z,11.43
2019-01-11T15:32:37.297Z,10.40
2019-01-11T15:35:06.487Z,12.18
2019-01-11T15:37:35.148Z,12.17
2019-01-11T15:40:04.865Z,12.10
2019-01-11T15:42:33.449Z,11.47
2019-01-11T15:45:02.089Z,10.70
2019-01-11T15:47:30.805Z,11.97
2019-01-11T15:49:59.474Z,11.33
2019-01-11T15:52:33.304Z,11.07
2019-01-11T15:54:58.555Z,12.03
2019-01-11T15:57:42.715Z,11.00
2019-01-11T16:00:18.719Z,10.35
2019-01-11T16:02:47.439Z,11.43
2019-01-11T16:05:16.121Z,12.17
2019-01-11T16:07:45.006Z,11.33
2019-01-11T16:10:17.093Z,11.70
2019-01-11T16:12:48.781Z,11.13
2019-01-11T16:16:01.630Z,12.87
2019-01-11T16:18:32.012Z,11.87
2019-01-11T16:21:02.036Z,11.77
2019-01-11T16:23:30.699Z,13.13
2019-01-11T16:25:59.596Z,13.33
2019-01-11T16:28:28.612Z,11.97
2019-01-11T16:30:57.379Z,12.40
2019-01-11T16:33:26.134Z,13.67
2019-01-11T16:35:54.960Z,14.53
2019-01-11T16:38:23.633Z,14.60
2019-01-11T16:40:52.267Z,13.60
2019-01-11T16:43:21.125Z,13.17
2019-01-11T16:45:50.084Z,13.33
2019-01-11T16:48:18.655Z,14.37
2019-01-11T16:50:47.530Z,14.00
2019-01-11T16:53:16.225Z,12.90
2019-01-11T16:55:45.035Z,15.30
2019-01-11T16:58:15.325Z,13.33
2019-01-11T17:00:44.078Z,15.57
2019-01-11T17:03:12.898Z,16.27
2019-01-11T17:05:41.494Z,15.23
2019-01-11T17:08:10.449Z,15.88
2019-01-11T17:10:39.386Z,14.83
2019-01-11T17:13:08.409Z,17.20
2019-01-11T17:15:37.162Z,17.83
2019-01-11T17:18:05.926Z,19.37
2019-01-11T17:20:34.628Z,16.13
2019-01-11T17:23:03.722Z,17.17
2019-01-11T17:25:32.329Z,17.33
2019-01-11T17:28:01.987Z,18.73
2019-01-11T17:30:30.659Z,15.00
2019-01-11T17:32:59.257Z,17.15
2019-01-11T17:35:28.002Z,15.23
2019-01-11T17:37:57.415Z,13.03
2019-01-11T17:40:26.214Z,12.43
2019-01-11T17:42:54.956Z,15.17
2019-01-11T17:45:23.788Z,15.20
2019-01-11T17:47:52.514Z,12.20
2019-01-11T17:50:21.678Z,15.65
2019-01-11T17:52:50.366Z,16.12
2019-01-11T17:55:19.129Z,15.60
2019-01-11T17:57:47.813Z,14.50
2019-01-11T18:00:19.495Z,14.30
2019-01-11T18:02:48.174Z,14.60
2019-01-11T18:05:17.343Z,15.70
2019-01-11T18:07:46.382Z,13.90
2019-01-11T18:10:15.072Z,14.47
2019-01-11T18:12:43.777Z,14.20
2019-01-11T18:15:14.798Z,13.68
2019-01-11T18:17:43.445Z,14.30
2019-01-11T18:20:25.291Z,14.15
2019-01-11T18:22:54.124Z,14.00
2019-01-11T18:25:22.741Z,12.70
2019-01-11T18:27:51.408Z,10.38
2019-01-11T18:30:20.084Z,11.10
2019-01-11T18:32:48.867Z,10.13
2019-01-11T18:35:17.543Z,11.37
2019-01-11T18:37:46.290Z,11.43
2019-01-11T18:40:17.640Z,11.70
2019-01-11T18:42:46.314Z,13.23
2019-01-11T18:45:14.988Z,11.50
2019-01-11T18:47:43.587Z,9.47
2019-01-11T18:50:14.911Z,8.00
2019-01-11T18:52:43.609Z,8.87
2019-01-11T18:55:12.291Z,9.08
2019-01-11T18:57:40.990Z,8.97
2019-01-11T19:00:13.103Z,8.70
2019-01-11T19:02:41.953Z,9.33
2019-01-11T19:05:11.720Z,10.03
2019-01-11T19:07:45.920Z,9.17
2019-01-11T19:10:12.403Z,9.63
2019-01-11T19:12:41.071Z,9.73
2019-01-11T19:15:12.034Z,8.93
2019-01-11T19:17:40.689Z,8.50
2019-01-11T19:20:21.126Z,9.60
2019-01-11T19:22:49.803Z,9.97
2019-01-11T19:25:18.528Z,9.70
2019-01-11T19:27:48.210Z,9.30
2019-01-11T19:30:21.851Z,9.43
2019-01-11T19:32:50.539Z,9.83
2019-01-11T19:35:19.285Z,11.20
2019-01-11T19:37:48.013Z,11.73
2019-01-11T19:40:16.795Z,10.43
2019-01-11T19:42:45.693Z,9.43
2019-01-11T19:45:14.361Z,8.90
2019-01-11T19:47:43.386Z,8.63
2019-01-11T19:50:17.388Z,8.47
2019-01-11T19:52:46.147Z,7.60
2019-01-11T19:55:15.015Z,8.43
2019-01-11T19:57:43.669Z,8.77
2019-01-11T20:00:24.245Z,7.87
2019-01-11T20:02:53.489Z,6.17
2019-01-11T20:05:22.396Z,6.40
2019-01-11T20:07:51.003Z,5.93
2019-01-11T20:10:38.989Z,5.97
2019-01-11T20:13:07.667Z,5.90
2019-01-11T20:15:36.286Z,7.20
2019-01-11T20:18:05.304Z,7.30
2019-01-11T20:20:34.000Z,6.03
2019-01-11T20:23:02.905Z,7.53
2019-01-11T20:25:31.615Z,6.23
2019-01-11T20:28:00.215Z,5.83
2019-01-11T20:30:29.153Z,6.27
2019-01-11T20:32:57.801Z,6.47
2019-01-11T20:35:26.453Z,6.13
2019-01-11T20:37:55.147Z,6.27
2019-01-11T20:40:23.855Z,6.67
2019-01-11T20:42:52.664Z,6.67
2019-01-11T20:45:21.678Z,4.73
2019-01-11T20:47:50.312Z,6.20
2019-01-11T20:50:23.663Z,6.63
2019-01-11T20:52:52.524Z,6.80
2019-01-11T20:55:21.214Z,7.90
2019-01-11T20:57:49.950Z,7.97
2019-01-11T21:00:23.738Z,7.57
2019-01-11T21:02:52.388Z,8.00
2019-01-11T21:05:21.282Z,8.63
2019-01-11T21:07:49.946Z,9.07
2019-01-11T21:10:18.777Z,7.80
2019-01-11T21:12:47.515Z,7.70
2019-01-11T21:15:16.465Z,7.40
2019-01-11T21:17:45.121Z,7.70
2019-01-11T21:20:15.273Z,7.20
2019-01-11T21:22:44.049Z,8.60
2019-01-11T21:25:13.539Z,8.85
2019-01-11T21:27:42.273Z,7.73
2019-01-11T21:30:19.410Z,8.83
2019-01-11T21:32:48.500Z,9.90
2019-01-11T21:35:17.359Z,8.83
2019-01-11T21:37:46.128Z,10.73
2019-01-11T21:40:16.746Z,12.20
2019-01-11T21:42:45.383Z,11.20
2019-01-11T21:45:14.217Z,9.98
2019-01-11T21:47:42.891Z,10.53
2019-01-11T21:50:14.127Z,10.67
2019-01-11T21:52:42.896Z,12.07
2019-01-11T21:55:12.402Z,12.35
2019-01-11T21:57:41.218Z,11.90
2019-01-11T22:00:19.178Z,11.25
2019-01-11T22:02:47.842Z,10.33
2019-01-11T22:05:16.493Z,11.53
2019-01-11T22:07:45.142Z,10.17
2019-01-11T22:10:14.205Z,10.23
2019-01-11T22:12:42.823Z,9.43
2019-01-11T22:15:13.934Z,10.77
2019-01-11T22:17:42.569Z,12.30
2019-01-11T22:20:12.771Z,10.67
2019-01-11T22:22:41.407Z,10.13
2019-01-11T22:25:11.384Z,9.43
2019-01-11T22:27:40.559Z,10.50
2019-01-11T22:30:15.968Z,9.00
2019-01-11T22:32:44.797Z,9.55
2019-01-11T22:35:15.967Z,10.50
2019-01-11T22:37:44.776Z,9.83
2019-01-11T22:40:16.031Z,10.57
2019-01-11T22:42:45.224Z,9.87
2019-01-11T22:45:14.488Z,10.40
2019-01-11T22:47:43.132Z,10.73
2019-01-11T22:50:12.275Z,10.80
2019-01-11T22:52:41.147Z,11.35
2019-01-11T22:55:10.890Z,11.27
2019-01-11T22:57:39.683Z,9.73
2019-01-11T23:00:44.402Z,11.80
2019-01-11T23:03:17.421Z,12.27
2019-01-11T23:05:46.798Z,11.35
2019-01-11T23:08:18.848Z,10.03
2019-01-11T23:11:12.453Z,9.55
2019-01-11T23:13:41.216Z,10.27
2019-01-11T23:16:36.042Z,9.87
2019-01-11T23:19:05.207Z,9.87
2019-01-11T23:21:33.858Z,10.67
2019-01-11T23:24:02.701Z,10.47
2019-01-11T23:26:33.454Z,10.33
2019-01-11T23:29:02.510Z,11.47
2019-01-11T23:31:31.312Z,10.57
2019-01-11T23:33:59.950Z,9.77
2019-01-11T23:36:28.609Z,11.20
2019-01-11T23:38:57.275Z,11.77
2019-01-11T23:41:26.458Z,9.90
2019-01-11T23:43:55.073Z,11.13
2019-01-11T23:46:23.708Z,10.53
2019-01-11T23:48:52.334Z,10.60
2019-01-11T23:51:20.942Z,8.93
2019-01-11T23:53:50.752Z,9.57
2019-01-11T23:56:19.467Z,11.73
2019-01-11T23:58:48.220Z,10.90
